Time;durP1;ratioP1;P1;durP2;ratioP2;P2;SDS_P1;SDS_P2;PMS_P1;PMS_P2;Temp;Humidity;BMP_temperature;BMP_pressure;BME280_temperature;BME280_humidity;BME280_pressure;Samples;Min_cycle;Max_cycle;Signal;HPM_P1;HPM_P2
2022/01/22 00:00:47;;;;;;;23.17;2.50;;;6.70;99.90;;;;;;4999531;28;20042;-77
2022/01/22 00:03:13;;;;;;;22.92;2.65;;;6.30;99.90;;;;;;4999996;28;20084;-81
2022/01/22 00:05:38;;;;;;;19.38;2.28;;;7.70;99.90;;;;;;5002335;28;20133;-82
2022/01/22 00:08:04;;;;;;;23.80;2.75;;;6.30;99.90;;;;;;5000153;28;20153;-81
2022/01/22 00:10:30;;;;;;;27.08;3.45;;;6.20;99.90;;;;;;5002287;28;20033;-83
2022/01/22 00:13:06;;;;;;;29.20;3.30;;;6.20;99.90;;;;;;4996721;28;20046;-81
2022/01/22 00:15:32;;;;;;;19.35;3.50;;;6.30;99.90;;;;;;4999941;28;20087;-81
2022/01/22 00:17:58;;;;;;;25.05;2.65;;;6.30;99.90;;;;;;4998947;28;20046;-81
2022/01/22 00:20:26;;;;;;;19.25;3.45;;;6.10;99.90;;;;;;5002863;28;20053;-79
2022/01/22 00:22:53;;;;;;;20.10;3.25;;;5.90;99.90;;;;;;4993473;28;20039;-81
2022/01/22 00:25:21;;;;;;;22.00;3.28;;;6.30;99.90;;;;;;4997539;28;20513;-78
2022/01/22 00:27:48;;;;;;;25.75;2.80;;;6.10;99.90;;;;;;5003582;28;20037;-79
2022/01/22 00:30:23;;;;;;;25.60;2.72;;;6.20;99.90;;;;;;4990743;28;20050;-81
2022/01/22 00:32:49;;;;;;;;;;;6.20;99.90;;;;;;4998260;28;20046;-81
2022/01/22 00:35:16;;;;;;;17.05;3.00;;;6.20;99.90;;;;;;5003665;28;19921;-81
2022/01/22 00:37:44;;;;;;;15.50;2.47;;;6.20;99.90;;;;;;5004532;28;20049;-81
2022/01/22 00:40:11;;;;;;;20.23;2.17;;;6.30;99.90;;;;;;5009962;28;20125;-81
2022/01/22 00:42:38;;;;;;;15.05;2.47;;;6.20;99.90;;;;;;5020080;28;20452;-78
2022/01/22 00:45:04;;;;;;;14.40;1.58;;;6.30;99.90;;;;;;4997234;28;20058;-82
2022/01/22 00:47:30;;;;;;;12.20;2.20;;;6.30;99.90;;;;;;5004191;28;20038;-78
2022/01/22 00:49:56;;;;;;;16.15;2.13;;;6.30;99.90;;;;;;5017784;28;20057;-82
2022/01/22 00:52:22;;;;;;;15.90;1.83;;;6.20;99.90;;;;;;5005874;28;20035;-81
2022/01/22 00:54:47;;;;;;;11.18;2.25;;;6.30;99.90;;;;;;5008323;28;20048;-81
2022/01/22 00:57:13;;;;;;;16.05;2.28;;;5.60;99.90;;;;;;5006494;28;20366;-77
2022/01/22 00:59:39;;;;;;;23.02;2.70;;;6.20;99.90;;;;;;5001575;28;20061;-81
2022/01/22 01:02:05;;;;;;;23.33;2.85;;;6.20;99.90;;;;;;5002913;28;20496;-82
2022/01/22 01:04:34;;;;;;;22.10;2.45;;;7.70;99.90;;;;;;5006223;28;20121;-81
2022/01/22 01:07:00;;;;;;;14.02;2.53;;;6.30;99.90;;;;;;5002957;28;20034;-81
2022/01/22 01:09:26;;;;;;;21.63;2.67;;;6.00;99.90;;;;;;5000347;28;20048;-82
2022/01/22 01:11:57;;;;;;;19.23;3.08;;;6.10;99.90;;;;;;5005984;28;20048;-77
2022/01/22 01:14:35;;;;;;;20.00;3.03;;;6.20;99.90;;;;;;5019185;28;20050;-80
2022/01/22 01:33:22;;;;;;;15.10;2.13;;;6.20;99.90;;;;;;5005843;28;20582;-80
2022/01/22 01:35:48;;;;;;;12.85;1.88;;;6.30;99.90;;;;;;5004878;28;20108;-77
2022/01/22 01:38:14;;;;;;;12.60;1.95;;;6.30;99.90;;;;;;4982874;28;20577;-82
2022/01/22 01:40:43;;;;;;;12.98;1.95;;;6.10;99.90;;;;;;4982748;28;20050;-81
2022/01/22 01:43:25;;;;;;;14.32;1.67;;;6.00;99.90;;;;;;5008736;28;20034;-76
2022/01/22 01:45:51;;;;;;;11.00;1.90;;;6.10;99.90;;;;;;5021789;28;20437;-81
2022/01/22 01:48:22;;;;;;;13.73;2.00;;;6.00;99.90;;;;;;4991877;28;20038;-79
2022/01/22 01:50:47;;;;;;;12.52;1.70;;;5.60;99.90;;;;;;4999656;28;20038;-82
2022/01/22 01:53:31;;;;;;;14.50;1.80;;;6.00;99.90;;;;;;5001722;28;20038;-80
2022/01/22 01:58:24;;;;;;;10.43;1.63;;;6.20;99.90;;;;;;5017746;28;20544;-81
2022/01/22 02:00:51;;;;;;;12.32;1.63;;;6.20;99.90;;;;;;4999733;28;20398;-81
2022/01/22 02:03:17;;;;;;;13.55;1.42;;;6.40;99.90;;;;;;5000006;28;20120;-80
2022/01/22 02:05:42;;;;;;;20.60;2.35;;;6.30;99.90;;;;;;5001800;28;20466;-77
2022/01/22 02:08:09;;;;;;;5.95;0.90;;;6.20;99.90;;;;;;4985112;28;20129;-75
2022/01/22 02:10:39;;;;;;;15.35;1.60;;;5.90;99.90;;;;;;4996753;28;20125;-81
2022/01/22 02:24:03;;;;;;;6.20;0.85;;;4.50;99.90;;;;;;5018686;28;20491;-77
2022/01/22 02:26:29;;;;;;;6.80;0.95;;;6.30;99.90;;;;;;5005788;28;20049;-76
2022/01/22 02:28:55;;;;;;;12.90;1.00;;;6.30;99.90;;;;;;4983632;28;20038;-80
2022/01/22 02:34:38;;;;;;;6.82;1.90;;;5.70;99.90;;;;;;4969807;28;20043;-80
2022/01/22 02:37:11;;;;;;;6.88;0.80;;;6.30;99.90;;;;;;4992960;28;20054;-76
2022/01/22 02:39:45;;;;;;;9.52;1.65;;;6.30;99.90;;;;;;5003371;28;20050;-80
2022/01/22 02:42:11;;;;;;;9.27;1.30;;;5.90;99.90;;;;;;5000554;28;20046;-78
2022/01/22 02:44:45;;;;;;;10.00;0.80;;;6.10;99.90;;;;;;5001178;28;20409;-80
2022/01/22 02:47:11;;;;;;;8.88;1.02;;;6.30;99.90;;;;;;5001749;28;20121;-80
2022/01/22 02:49:37;;;;;;;8.95;1.00;;;6.30;99.90;;;;;;5002760;28;20172;-81
2022/01/22 02:52:05;;;;;;;12.25;1.30;;;6.30;99.90;;;;;;5001524;28;20418;-77
2022/01/22 02:54:31;;;;;;;15.95;1.38;;;7.10;99.90;;;;;;5004487;28;20049;-80
2022/01/22 02:56:57;;;;;;;11.85;1.00;;;5.90;99.90;;;;;;5003457;28;20398;-79
2022/01/22 02:59:23;;;;;;;7.90;1.08;;;6.30;99.90;;;;;;4999329;28;20042;-81
2022/01/22 03:01:50;;;;;;;14.70;1.30;;;6.20;99.90;;;;;;5001332;28;20565;-78
2022/01/22 03:04:16;;;;;;;10.00;0.90;;;6.20;99.90;;;;;;4990307;28;20544;-77
2022/01/22 03:06:42;;;;;;;9.88;1.08;;;7.80;99.90;;;;;;5002778;28;20038;-80
2022/01/22 03:09:11;;;;;;;6.57;0.85;;;6.20;99.90;;;;;;5001153;28;20088;-78
2022/01/22 03:11:47;;;;;;;7.78;1.50;;;6.10;99.90;;;;;;5000545;28;20125;-81
2022/01/22 03:17:13;;;;;;;6.47;1.10;;;6.20;99.90;;;;;;5002733;28;20058;-76
2022/01/22 03:22:29;;;;;;;4.72;1.20;;;6.20;99.90;;;;;;5001351;28;20487;-82
2022/01/22 03:27:38;;;;;;;5.32;1.00;;;6.10;99.90;;;;;;5008648;28;20148;-79
2022/01/22 03:30:05;;;;;;;3.00;1.10;;;6.10;99.90;;;;;;5001189;28;20089;-77
2022/01/22 03:32:38;;;;;;;15.73;3.10;;;6.20;99.90;;;;;;4997207;28;20050;-81
2022/01/22 03:35:25;;;;;;;5.90;1.50;;;6.20;99.90;;;;;;5005495;28;20061;-80
2022/01/22 03:37:53;;;;;;;6.47;1.85;;;6.20;99.90;;;;;;5003668;28;20039;-82
2022/01/22 03:40:25;;;;;;;14.10;1.98;;;6.10;99.90;;;;;;4997946;28;20059;-81
2022/01/22 03:42:53;;;;;;;7.68;1.20;;;5.90;99.90;;;;;;5004727;28;20045;-81
2022/01/22 03:45:20;;;;;;;6.90;1.30;;;5.90;99.90;;;;;;5001052;28;20050;-81
2022/01/22 03:47:46;;;;;;;7.43;1.40;;;6.20;99.90;;;;;;5000584;28;20046;-81
2022/01/22 03:50:13;;;;;;;6.43;1.25;;;7.60;99.90;;;;;;5005246;28;20052;-76
2022/01/22 03:52:39;;;;;;;7.15;1.00;;;8.50;99.90;;;;;;4997381;28;20053;-80
2022/01/22 03:55:09;;;;;;;7.53;1.23;;;5.60;99.90;;;;;;4998291;28;20046;-81
2022/01/22 03:57:36;;;;;;;6.28;1.15;;;6.20;99.90;;;;;;5000948;28;20038;-81
2022/01/22 04:00:05;;;;;;;5.43;1.45;;;6.00;99.90;;;;;;4998454;28;20050;-81
2022/01/22 04:05:14;;;;;;;8.77;0.70;;;6.10;99.90;;;;;;5001229;28;20103;-82
2022/01/22 04:10:25;;;;;;;8.45;1.20;;;6.10;99.90;;;;;;5003201;28;20187;-81
2022/01/22 04:15:23;;;;;;;5.97;0.52;;;6.10;99.90;;;;;;5000969;28;20039;-81
2022/01/22 04:25:52;;;;;;;6.30;0.90;;;6.10;99.90;;;;;;5008732;28;20058;-76
2022/01/22 04:28:18;;;;;;;5.60;0.77;;;6.10;99.90;;;;;;5003348;28;20074;-80
2022/01/22 04:30:45;;;;;;;9.02;0.80;;;6.10;99.90;;;;;;5001095;28;20568;-76
2022/01/22 04:33:11;;;;;;;6.32;0.65;;;6.10;99.90;;;;;;5012106;28;20053;-81
2022/01/22 04:35:37;;;;;;;13.23;0.70;;;6.90;99.90;;;;;;5005628;28;20244;-81
2022/01/22 04:38:19;;;;;;;8.57;0.82;;;6.10;99.90;;;;;;5088028;27;20409;-77
2022/01/22 04:40:44;;;;;;;8.98;1.00;;;6.10;99.90;;;;;;5069685;28;20047;-82
2022/01/22 04:43:11;;;;;;;6.13;0.70;;;6.00;99.90;;;;;;5069386;28;20044;-83
2022/01/22 04:55:44;;;;;;;7.95;1.08;;;6.10;99.90;;;;;;5086766;28;20127;-76
2022/01/22 04:58:10;;;;;;;8.25;1.00;;;6.00;99.90;;;;;;5069187;28;20048;-80
2022/01/22 05:00:38;;;;;;;7.82;1.08;;;5.70;99.90;;;;;;5069610;28;20036;-76
2022/01/22 05:03:05;;;;;;;3.85;0.90;;;6.00;99.90;;;;;;5070492;28;20046;-80
2022/01/22 05:05:31;;;;;;;9.18;1.00;;;5.60;99.90;;;;;;5070216;28;20036;-80
2022/01/22 05:07:57;;;;;;;10.43;1.35;;;6.10;99.90;;;;;;5087541;28;20383;-80
2022/01/22 05:10:23;;;;;;;11.23;1.20;;;6.10;99.90;;;;;;5086270;28;20088;-77
2022/01/22 05:12:49;;;;;;;7.47;0.80;;;7.50;99.90;;;;;;5070033;28;20079;-79
2022/01/22 05:15:16;;;;;;;6.07;0.90;;;7.70;99.90;;;;;;5070725;28;20391;-80
2022/01/22 05:17:43;;;;;;;7.22;0.93;;;6.10;99.90;;;;;;5069749;28;20490;-75
2022/01/22 05:22:54;;;;;;;10.23;1.02;;;6.10;99.90;;;;;;5086269;28;20562;-77
2022/01/22 05:25:24;;;;;;;7.05;0.90;;;6.10;99.90;;;;;;5086503;28;20515;-75
2022/01/22 05:30:51;;;;;;;11.35;0.90;;;6.10;99.90;;;;;;5085787;28;20412;-81
2022/01/22 05:38:50;;;;;;;7.38;1.25;;;6.00;99.90;;;;;;5080340;28;20553;-81
2022/01/22 05:41:16;;;;;;;7.65;0.88;;;6.10;99.90;;;;;;5085600;28;20040;-77
2022/01/22 05:43:42;;;;;;;12.98;1.50;;;7.50;99.90;;;;;;5068759;28;20048;-77
2022/01/22 05:46:07;;;;;;;14.32;1.33;;;6.20;99.90;;;;;;5068839;28;20040;-76
2022/01/22 05:48:33;;;;;;;8.60;1.05;;;6.10;99.90;;;;;;5061887;28;20051;-76
2022/01/22 05:51:02;;;;;;;11.57;1.42;;;5.80;99.90;;;;;;5055846;28;20119;-76
2022/01/22 05:53:39;;;;;;;12.80;1.20;;;5.60;99.90;;;;;;5071504;28;20094;-81
2022/01/22 06:01:16;;;;;;;10.43;1.15;;;7.70;99.90;;;;;;5069488;28;20047;-79
2022/01/22 06:03:43;;;;;;;20.33;1.55;;;7.20;99.90;;;;;;5055363;28;20040;-78
2022/01/22 06:06:08;;;;;;;10.00;1.40;;;6.20;99.90;;;;;;5056172;28;20056;-79
2022/01/22 06:08:40;;;;;;;4.63;0.85;;;5.60;99.90;;;;;;5071321;28;20472;-81
2022/01/22 06:11:11;;;;;;;8.82;1.70;;;5.90;99.90;;;;;;5072223;28;20048;-76
2022/01/22 06:13:46;;;;;;;15.90;1.10;;;6.80;99.90;;;;;;5055350;28;20385;-81
2022/01/22 06:16:18;;;;;;;8.50;1.35;;;6.10;99.90;;;;;;5055092;28;20044;-78
2022/01/22 06:18:44;;;;;;;7.07;1.02;;;6.10;99.90;;;;;;5071725;28;20072;-81
2022/01/22 06:21:10;;;;;;;7.82;1.30;;;7.40;99.90;;;;;;5055856;28;20056;-76
2022/01/22 06:23:38;;;;;;;6.78;1.67;;;5.60;99.90;;;;;;5054180;28;20044;-78
2022/01/22 06:26:05;;;;;;;5.80;1.05;;;6.10;99.90;;;;;;5072598;28;20076;-77
2022/01/22 06:28:32;;;;;;;11.63;1.40;;;6.30;99.90;;;;;;5054801;28;20075;-78
2022/01/22 06:30:58;;;;;;;5.97;1.60;;;6.10;99.90;;;;;;5054894;28;20052;-80
2022/01/22 06:33:25;;;;;;;8.23;1.55;;;6.10;99.90;;;;;;5054865;28;20056;-78
2022/01/22 06:35:51;;;;;;;8.50;1.70;;;5.60;99.90;;;;;;5054774;28;20033;-80
2022/01/22 06:38:17;;;;;;;8.50;1.63;;;5.60;99.90;;;;;;5071834;28;20049;-81
2022/01/22 06:43:28;;;;;;;13.15;1.60;;;5.70;99.90;;;;;;5070363;28;20411;-77
2022/01/22 06:45:53;;;;;;;4.72;1.55;;;6.00;99.90;;;;;;5054969;28;20043;-77
2022/01/22 06:48:19;;;;;;;7.63;1.50;;;7.90;99.90;;;;;;5071290;28;20044;-81
2022/01/22 06:50:45;;;;;;;8.18;1.25;;;6.00;99.90;;;;;;5053856;28;20060;-77
2022/01/22 06:53:10;;;;;;;6.30;1.65;;;8.10;99.90;;;;;;5071613;28;20036;-81
2022/01/22 06:56:11;;;;;;;7.78;1.67;;;5.60;99.90;;;;;;5054053;28;20135;-80
2022/01/22 06:58:28;;;;;;;6.03;1.40;;;5.40;99.90;;;;;;5067254;28;20408;-81
2022/01/22 07:00:53;;;;;;;7.68;2.05;;;5.90;99.90;;;;;;5070021;28;20051;-81
2022/01/22 07:03:20;;;;;;;8.40;1.58;;;5.40;99.90;;;;;;5054745;28;20055;-76
2022/01/22 07:05:45;;;;;;;7.97;1.42;;;5.40;99.90;;;;;;5053476;28;20041;-80
2022/01/22 07:08:11;;;;;;;9.63;1.65;;;6.00;99.90;;;;;;5071324;28;20046;-77
2022/01/22 07:10:37;;;;;;;4.65;1.30;;;4.50;99.90;;;;;;5053046;28;20483;-77
2022/01/22 07:13:03;;;;;;;9.20;2.28;;;6.00;99.90;;;;;;5055105;28;20040;-76
2022/01/22 07:15:29;;;;;;;7.75;1.80;;;5.90;99.90;;;;;;5053694;28;20123;-80
2022/01/22 07:17:56;;;;;;;3.53;1.00;;;6.00;99.90;;;;;;5070165;28;20476;-76
2022/01/22 07:20:31;;;;;;;3.05;0.98;;;5.90;99.90;;;;;;5069800;28;20075;-76
2022/01/22 07:23:14;;;;;;;4.22;0.77;;;7.90;99.90;;;;;;5054796;28;20483;-81
2022/01/22 07:25:40;;;;;;;4.85;0.70;;;5.50;99.90;;;;;;5066557;28;20415;-77
2022/01/22 07:28:06;;;;;;;4.03;0.75;;;5.90;99.90;;;;;;5070451;28;20048;-80
2022/01/22 07:30:32;;;;;;;3.97;1.33;;;6.40;99.90;;;;;;5053017;28;20040;-81
2022/01/22 07:32:57;;;;;;;4.70;0.65;;;5.90;99.90;;;;;;5053857;28;20040;-78
2022/01/22 07:35:23;;;;;;;2.58;1.05;;;5.90;99.90;;;;;;5071398;28;20483;-78
2022/01/22 07:37:49;;;;;;;3.30;0.80;;;7.70;99.90;;;;;;5054305;28;20048;-79
2022/01/22 07:40:15;;;;;;;4.70;0.80;;;5.90;99.90;;;;;;5053042;28;20051;-75
2022/01/22 07:42:41;;;;;;;5.45;0.73;;;5.40;99.90;;;;;;5070052;28;20195;-80
2022/01/22 07:45:08;;;;;;;3.58;0.80;;;7.80;99.90;;;;;;5054007;28;20084;-78
2022/01/22 07:47:35;;;;;;;6.40;1.20;;;5.90;99.90;;;;;;5052094;28;20036;-81
2022/01/22 07:50:00;;;;;;;6.18;1.30;;;5.60;99.90;;;;;;5070295;28;20131;-75
2022/01/22 07:52:26;;;;;;;4.78;1.48;;;5.30;99.90;;;;;;5053405;28;20123;-76
2022/01/22 07:54:52;;;;;;;9.15;1.38;;;5.40;99.90;;;;;;5053054;28;20079;-81
2022/01/22 07:57:18;;;;;;;5.03;1.30;;;5.30;99.90;;;;;;5069608;28;20049;-76
2022/01/22 07:59:43;;;;;;;6.70;1.23;;;5.40;99.90;;;;;;5049002;28;20094;-76
2022/01/22 08:02:09;;;;;;;4.57;0.90;;;5.30;99.90;;;;;;5053910;28;20040;-78
2022/01/22 08:04:35;;;;;;;3.40;0.65;;;5.70;99.90;;;;;;5052398;28;20036;-79
2022/01/22 08:07:03;;;;;;;2.65;0.70;;;5.40;99.90;;;;;;5068447;28;20143;-77
2022/01/22 08:09:29;;;;;;;9.02;1.02;;;5.70;99.90;;;;;;5052756;28;20041;-78
2022/01/22 08:11:55;;;;;;;7.38;1.23;;;5.50;99.90;;;;;;5070538;28;20032;-82
2022/01/22 08:14:20;;;;;;;8.75;0.90;;;5.40;99.90;;;;;;5052686;28;20498;-77
2022/01/22 08:16:47;;;;;;;4.90;0.80;;;5.70;99.90;;;;;;5053174;28;20488;-81
2022/01/22 08:19:14;;;;;;;13.10;3.78;;;6.90;99.90;;;;;;5053165;28;20063;-81
2022/01/22 08:21:40;;;;;;;9.93;2.22;;;5.80;99.90;;;;;;5052368;28;20048;-81
2022/01/22 08:24:07;;;;;;;9.73;0.80;;;5.40;99.90;;;;;;5053766;28;20048;-78
2022/01/22 08:26:37;;;;;;;7.00;0.85;;;5.70;99.90;;;;;;5052375;28;20365;-81
2022/01/22 08:29:03;;;;;;;7.13;1.63;;;5.80;99.90;;;;;;5052344;28;20491;-81
2022/01/22 08:36:42;;;;;;;15.38;1.70;;;5.50;99.90;;;;;;5069004;28;20475;-77
2022/01/22 08:39:07;;;;;;;6.78;0.80;;;5.80;99.90;;;;;;5053678;28;20052;-76
2022/01/22 08:41:33;;;;;;;6.68;1.00;;;5.40;99.90;;;;;;5052700;28;20385;-79
2022/01/22 08:44:00;;;;;;;8.48;0.80;;;5.80;99.90;;;;;;5051942;28;20040;-81
2022/01/22 08:46:27;;;;;;;6.72;1.35;;;5.60;99.90;;;;;;5069262;28;20056;-78
2022/01/22 08:48:53;;;;;;;8.50;0.88;;;5.70;99.90;;;;;;5069776;28;20077;-77
2022/01/22 08:51:18;;;;;;;10.02;1.00;;;5.80;99.90;;;;;;5068270;28;20036;-77
2022/01/22 08:53:44;;;;;;;15.77;1.88;;;5.90;99.90;;;;;;5053629;28;20552;-77
2022/01/22 08:56:10;;;;;;;9.90;0.85;;;5.40;99.90;;;;;;5052601;28;20041;-78
2022/01/22 08:58:36;;;;;;;9.82;1.00;;;5.70;99.90;;;;;;5052113;28;20488;-81
2022/01/22 09:01:03;;;;;;;8.40;2.35;;;5.90;99.90;;;;;;5052606;28;20044;-81
2022/01/22 09:03:29;;;;;;;19.85;6.10;;;5.90;99.90;;;;;;5068370;28;20055;-77
2022/01/22 09:05:56;;;;;;;10.73;6.15;;;5.90;99.90;;;;;;5070195;28;20047;-79
2022/01/22 09:08:24;;;;;;;12.38;1.52;;;5.80;99.90;;;;;;5052659;28;20094;-79
2022/01/22 09:10:50;;;;;;;9.75;1.50;;;5.90;99.90;;;;;;5052182;28;20041;-76
2022/01/22 09:13:16;;;;;;;13.00;1.70;;;5.50;99.90;;;;;;5053684;28;20047;-81
2022/01/22 09:15:42;;;;;;;14.38;1.67;;;7.30;99.90;;;;;;5052000;28;20048;-76
2022/01/22 09:18:08;;;;;;;9.45;1.17;;;5.60;99.90;;;;;;5052147;28;20044;-82
2022/01/22 09:23:07;;;;;;;14.45;2.38;;;5.80;99.90;;;;;;5070219;28;20366;-81
2022/01/22 09:25:33;;;;;;;14.10;1.92;;;5.90;99.90;;;;;;5052459;28;20068;-81
2022/01/22 09:27:59;;;;;;;10.52;2.35;;;7.90;99.90;;;;;;5074226;28;20423;-82
2022/01/22 09:30:25;;;;;;;18.35;3.05;;;5.90;99.90;;;;;;5072630;28;20032;-78
2022/01/22 09:32:51;;;;;;;12.05;2.20;;;5.90;99.90;;;;;;5056254;28;20048;-80
2022/01/22 09:35:17;;;;;;;17.98;2.75;;;5.90;99.90;;;;;;5050298;28;20441;-81
2022/01/22 09:37:43;;;;;;;17.67;2.63;;;7.70;99.90;;;;;;5061553;28;20056;-81
2022/01/22 09:40:12;;;;;;;13.57;2.90;;;5.80;99.90;;;;;;5056745;28;20086;-79
2022/01/22 09:42:39;;;;;;;12.25;2.20;;;6.00;99.90;;;;;;5056740;28;20052;-77
2022/01/22 09:45:06;;;;;;;19.98;3.22;;;5.90;99.90;;;;;;5059122;28;20131;-77
2022/01/22 09:47:32;;;;;;;18.38;2.50;;;6.00;99.90;;;;;;5060051;28;20033;-81
2022/01/22 09:49:58;;;;;;;16.33;2.10;;;6.10;99.90;;;;;;5059592;28;20059;-80
2022/01/22 09:52:25;;;;;;;11.35;2.25;;;5.90;99.90;;;;;;5055635;28;20477;-81
2022/01/22 09:54:51;;;;;;;16.52;1.90;;;6.00;99.90;;;;;;5073314;28;20048;-78
2022/01/22 09:57:17;;;;;;;8.68;1.88;;;6.00;99.90;;;;;;5038097;28;20143;-80
2022/01/22 09:59:42;;;;;;;12.50;1.95;;;6.00;99.90;;;;;;5038232;28;20029;-80
2022/01/22 10:02:16;;;;;;;16.00;2.47;;;6.00;99.90;;;;;;5040969;28;20037;-78
2022/01/22 10:04:49;;;;;;;15.55;2.50;;;6.00;99.90;;;;;;5039138;28;20049;-80
2022/01/22 10:07:22;;;;;;;13.57;2.25;;;5.90;99.90;;;;;;5053988;28;20473;-80
2022/01/22 10:10:14;;;;;;;11.63;2.90;;;6.00;99.90;;;;;;5039559;28;20485;-81
2022/01/22 10:12:46;;;;;;;10.25;2.25;;;6.00;99.90;;;;;;5052288;28;20060;-78
2022/01/22 10:15:17;;;;;;;14.57;2.45;;;6.10;99.90;;;;;;5042510;28;20048;-78
2022/01/22 10:17:45;;;;;;;14.10;2.15;;;6.10;99.90;;;;;;5058672;28;20178;-84
2022/01/22 10:20:27;;;;;;;14.82;3.35;;;6.10;99.90;;;;;;5042616;28;20052;-77
2022/01/22 10:23:22;;;;;;;11.70;2.70;;;8.20;99.90;;;;;;5053631;28;20034;-80
2022/01/22 10:25:55;;;;;;;12.50;3.47;;;5.50;99.90;;;;;;5052930;28;20040;-79
2022/01/22 10:28:23;;;;;;;15.82;2.47;;;5.80;99.90;;;;;;5071815;28;20041;-76
2022/01/22 10:30:55;;;;;;;13.38;2.53;;;6.10;99.90;;;;;;5071596;28;20049;-83
2022/01/22 10:33:28;;;;;;;12.85;2.50;;;6.10;99.90;;;;;;5041876;28;20037;-76
2022/01/22 10:36:15;;;;;;;14.15;2.45;;;6.10;99.90;;;;;;5065218;28;20032;-81
2022/01/22 10:38:43;;;;;;;13.55;1.98;;;6.20;99.90;;;;;;5070657;28;20045;-78
2022/01/22 10:41:09;;;;;;;12.10;2.72;;;6.10;99.90;;;;;;5054100;28;20044;-82
2022/01/22 10:43:42;;;;;;;11.63;2.10;;;6.20;99.90;;;;;;5054986;28;20040;-76
2022/01/22 10:47:03;;;;;;;10.95;2.00;;;5.80;99.90;;;;;;5064561;28;20045;-82
2022/01/22 10:49:07;;;;;;;11.70;1.83;;;6.20;99.90;;;;;;5057885;28;20055;-83
2022/01/22 10:51:45;;;;;;;6.88;2.40;;;6.20;99.90;;;;;;4367014;28;10000710;-76
2022/01/22 10:54:12;;;;;;;19.48;2.17;;;6.00;99.90;;;;;;5046391;28;20040;-81
2022/01/22 10:56:40;;;;;;;13.35;2.03;;;6.10;99.90;;;;;;5052967;28;20041;-77
2022/01/22 10:59:06;;;;;;;14.38;2.50;;;5.70;99.90;;;;;;5066999;28;20072;-78
2022/01/22 11:01:46;;;;;;;17.77;2.60;;;5.70;99.90;;;;;;5053469;28;20056;-81
2022/01/22 11:04:17;;;;;;;16.20;3.28;;;5.90;99.90;;;;;;5055577;28;20048;-77
2022/01/22 11:07:00;;;;;;;11.57;2.13;;;6.20;99.90;;;;;;5053823;28;20051;-79
2022/01/22 11:09:29;;;;;;;10.32;2.40;;;6.30;99.90;;;;;;5046404;28;20051;-82
2022/01/22 11:11:56;;;;;;;12.57;2.10;;;6.20;99.90;;;;;;5053146;28;20468;-81
2022/01/22 11:14:22;;;;;;;15.30;2.75;;;6.20;99.90;;;;;;5070973;28;20045;-79
2022/01/22 11:16:52;;;;;;;9.32;2.38;;;5.80;99.90;;;;;;5054279;28;20048;-82
2022/01/22 11:19:22;;;;;;;18.55;3.00;;;6.80;99.90;;;;;;5055004;28;20063;-78
2022/01/22 11:21:52;;;;;;;16.80;3.00;;;6.30;99.90;;;;;;5054473;28;20048;-79
2022/01/22 11:24:21;;;;;;;15.60;3.85;;;6.30;99.90;;;;;;5070813;28;20037;-81
2022/01/22 11:26:52;;;;;;;13.70;2.97;;;6.20;99.90;;;;;;5054641;28;20029;-82
2022/01/22 11:29:21;;;;;;;13.38;2.75;;;6.30;99.90;;;;;;5065709;28;20048;-79
2022/01/22 11:31:48;;;;;;;7.78;2.40;;;6.40;99.90;;;;;;5071292;28;20440;-78
2022/01/22 11:34:16;;;;;;;15.23;3.05;;;6.40;99.90;;;;;;5043362;28;20041;-81
2022/01/22 11:37:00;;;;;;;11.43;2.70;;;6.20;99.90;;;;;;5057440;28;20088;-81
2022/01/22 11:39:27;;;;;;;17.63;2.90;;;6.40;99.90;;;;;;5038795;28;20492;-82
2022/01/22 11:41:58;;;;;;;11.85;2.70;;;6.40;99.90;;;;;;5054669;28;20041;-80
2022/01/22 11:44:46;;;;;;;8.38;2.40;;;6.40;99.90;;;;;;5073017;28;20504;-81
2022/01/22 11:47:20;;;;;;;16.27;2.92;;;7.30;99.90;;;;;;5052892;28;20085;-80
2022/01/22 11:50:10;;;;;;;8.68;2.42;;;6.40;99.90;;;;;;5037666;28;20036;-82
2022/01/22 11:52:39;;;;;;;14.25;2.67;;;6.50;99.90;;;;;;5045626;28;20052;-83
2022/01/22 11:55:13;;;;;;;18.17;3.55;;;6.50;99.90;;;;;;5054403;28;20496;-82
2022/01/22 11:57:41;;;;;;;20.05;3.78;;;6.50;99.90;;;;;;5053406;28;20063;-82
2022/01/22 12:00:17;;;;;;;17.65;3.08;;;6.50;99.90;;;;;;5038899;28;20095;-80
2022/01/22 12:02:43;;;;;;;15.50;3.03;;;6.40;99.90;;;;;;5053828;28;20048;-78
2022/01/22 12:05:09;;;;;;;11.77;2.22;;;6.40;99.90;;;;;;5053117;28;20129;-81
2022/01/22 12:07:36;;;;;;;13.82;3.08;;;6.60;99.90;;;;;;5054639;28;20139;-82
2022/01/22 12:10:17;;;;;;;17.60;3.17;;;6.40;99.90;;;;;;5058405;28;20045;-89
2022/01/22 12:15:31;;;;;;;16.02;2.65;;;6.70;99.90;;;;;;5051638;28;20441;-88
2022/01/22 12:18:08;;;;;;;12.20;2.50;;;6.30;99.90;;;;;;5051692;28;20510;-87
2022/01/22 12:23:11;;;;;;;10.18;2.25;;;6.40;99.90;;;;;;5069360;28;20053;-87
2022/01/22 12:25:40;;;;;;;;;;;6.50;99.90;;;;;;5035757;28;20040;-87
2022/01/22 12:28:07;;;;;;;12.27;3.05;;;6.40;99.90;;;;;;5056536;28;19927;-87
2022/01/22 12:30:48;;;;;;;13.77;2.83;;;6.40;99.90;;;;;;5048794;28;20116;-88
2022/01/22 12:33:29;;;;;;;12.77;2.70;;;6.10;99.90;;;;;;5033075;28;20045;-87
2022/01/22 12:36:06;;;;;;;11.00;2.28;;;6.40;99.90;;;;;;5049745;28;20082;-79
2022/01/22 12:43:51;;;;;;;13.55;2.53;;;6.50;99.90;;;;;;5052301;28;20084;-83
2022/01/22 12:46:17;;;;;;;9.48;2.40;;;6.50;99.90;;;;;;5055515;28;20042;-82
2022/01/22 12:48:48;;;;;;;12.48;2.00;;;6.50;99.90;;;;;;5050220;28;20479;-84
2022/01/22 12:51:14;;;;;;;8.75;1.75;;;6.60;99.90;;;;;;5052531;28;20056;-81
2022/01/22 12:53:47;;;;;;;9.30;1.40;;;6.60;99.90;;;;;;5063670;28;20037;-82
2022/01/22 12:56:49;;;;;;;9.02;2.03;;;6.60;99.90;;;;;;5069841;28;20055;-82
2022/01/22 12:59:10;;;;;;;8.77;1.42;;;6.60;99.90;;;;;;5072351;28;20060;-80
2022/01/22 13:01:42;;;;;;;16.88;2.15;;;6.60;99.90;;;;;;5072841;28;20170;-82
2022/01/22 13:04:09;;;;;;;9.45;1.60;;;6.60;99.90;;;;;;5074121;28;20040;-81
2022/01/22 13:06:37;;;;;;;4.07;1.02;;;6.50;99.90;;;;;;5073484;28;20047;-80
2022/01/22 13:09:03;;;;;;;7.80;1.45;;;6.50;99.90;;;;;;5056345;28;20041;-81
2022/01/22 13:11:31;;;;;;;8.98;2.00;;;6.50;99.90;;;;;;5056488;28;20037;-83
2022/01/22 13:13:58;;;;;;;10.32;2.08;;;6.50;99.90;;;;;;5074321;28;20411;-82
2022/01/22 13:16:24;;;;;;;8.50;1.73;;;6.50;99.90;;;;;;5055887;28;20105;-81
2022/01/22 13:18:53;;;;;;;15.63;1.60;;;6.50;99.90;;;;;;5073974;28;20056;-81
2022/01/22 13:21:21;;;;;;;12.15;2.28;;;6.50;99.90;;;;;;5056838;28;20182;-82
2022/01/22 13:23:59;;;;;;;12.65;1.67;;;6.50;99.90;;;;;;5073227;28;20382;-82
2022/01/22 13:27:06;;;;;;;10.98;1.63;;;6.50;99.90;;;;;;5073057;28;20162;-80
2022/01/22 13:29:40;;;;;;;10.55;1.58;;;6.50;99.90;;;;;;5036063;28;20117;-82
2022/01/22 13:35:21;;;;;;;6.32;1.83;;;6.50;99.90;;;;;;5073464;28;20052;-82
2022/01/22 13:40:58;;;;;;;11.27;1.42;;;6.50;99.90;;;;;;5064118;28;20489;-79
2022/01/22 13:48:59;;;;;;;10.52;1.42;;;6.50;99.90;;;;;;5062027;28;20405;-82
2022/01/22 13:51:26;;;;;;;8.45;1.20;;;6.50;99.90;;;;;;5047960;28;20133;-81
2022/01/22 13:53:53;;;;;;;3.80;0.68;;;6.50;99.90;;;;;;4720609;28;10000098;-83
2022/01/22 13:56:21;;;;;;;5.70;1.10;;;6.50;99.90;;;;;;5053632;28;20049;-82
2022/01/22 13:58:47;;;;;;;9.13;1.80;;;6.40;99.90;;;;;;5053397;28;20115;-82
2022/01/22 14:01:31;;;;;;;10.02;1.35;;;6.40;99.90;;;;;;5047917;28;20139;-82
2022/01/22 14:04:10;;;;;;;7.73;1.70;;;6.40;99.90;;;;;;5070119;28;20488;-82
2022/01/22 14:06:37;;;;;;;5.75;1.40;;;6.40;99.90;;;;;;5061965;28;20040;-81
2022/01/22 14:09:20;;;;;;;6.35;1.42;;;6.30;99.90;;;;;;5053706;28;20036;-81
2022/01/22 14:12:11;;;;;;;5.25;0.88;;;6.40;99.90;;;;;;5063927;28;20056;-83
2022/01/22 14:14:56;;;;;;;9.90;1.40;;;6.40;99.90;;;;;;5062514;28;20094;-82
2022/01/22 14:17:24;;;;;;;14.52;2.10;;;6.40;99.90;;;;;;5069486;28;20063;-83
2022/01/22 14:20:08;;;;;;;9.27;1.23;;;6.30;99.90;;;;;;5069567;28;20098;-82
2022/01/22 14:22:54;;;;;;;6.78;0.70;;;6.40;99.90;;;;;;5045180;28;20036;-81
2022/01/22 14:25:20;;;;;;;6.03;0.80;;;6.40;99.90;;;;;;5068799;28;20088;-81
2022/01/22 14:28:01;;;;;;;6.07;0.57;;;6.70;99.90;;;;;;5053324;28;20087;-81
2022/01/22 14:30:36;;;;;;;7.55;1.17;;;6.40;99.90;;;;;;5069138;28;20041;-82
2022/01/22 14:33:02;;;;;;;2.88;0.28;;;6.30;99.90;;;;;;5052655;28;20112;-82
2022/01/22 14:35:28;;;;;;;9.27;1.00;;;6.40;99.90;;;;;;5069702;28;20167;-82
2022/01/22 14:37:56;;;;;;;15.13;2.33;;;6.30;99.90;;;;;;5055419;28;20565;-82
2022/01/22 14:45:59;;;;;;;6.18;1.67;;;6.30;99.90;;;;;;5063527;28;20460;-84
2022/01/22 14:48:25;;;;;;;5.35;0.68;;;6.30;99.90;;;;;;5069482;28;20044;-83
2022/01/22 14:50:52;;;;;;;5.65;0.77;;;6.30;99.90;;;;;;5069996;28;20085;-83
2022/01/22 14:53:18;;;;;;;5.68;0.75;;;6.20;99.90;;;;;;5067985;28;20044;-83
2022/01/22 14:55:52;;;;;;;5.80;0.85;;;6.30;99.90;;;;;;5045938;28;20041;-81
2022/01/22 14:58:17;;;;;;;6.93;0.80;;;6.30;99.90;;;;;;5069282;28;20104;-82
2022/01/22 15:00:43;;;;;;;4.47;0.40;;;6.30;99.90;;;;;;5052248;28;20040;-81
2022/01/22 15:03:09;;;;;;;8.63;0.93;;;6.30;99.90;;;;;;5069775;28;20047;-81
2022/01/22 15:05:34;;;;;;;5.95;1.10;;;6.30;99.90;;;;;;5052162;28;20040;-82